Time;durP1;ratioP1;P1;durP2;ratioP2;P2;SDS_P1;SDS_P2;PMS_P1;PMS_P2;Temp;Humidity;BMP_temperature;BMP_pressure;BME280_temperature;BME280_humidity;BME280_pressure;Samples;Min_cycle;Max_cycle;Signal;HPM_P1;HPM_P2
2023/03/15 00:01:18;;;;;;;1.67;1.33;;;6.70;99.90;;;;;;7392592;19;20138;-75
2023/03/15 00:03:45;;;;;;;6.33;1.93;;;6.70;99.90;;;;;;7389957;19;20154;-74
2023/03/15 00:06:11;;;;;;;2.60;1.60;;;6.80;99.90;;;;;;7392477;19;20151;-75
2023/03/15 00:08:37;;;;;;;4.10;2.13;;;6.70;99.90;;;;;;7394395;19;20137;-75
2023/03/15 00:11:04;;;;;;;1.97;1.77;;;6.80;99.90;;;;;;7392851;19;20151;-75
2023/03/15 00:13:30;;;;;;;2.10;1.90;;;6.80;99.90;;;;;;7393394;19;20151;-75
2023/03/15 00:15:58;;;;;;;1.67;1.50;;;6.70;99.90;;;;;;7388873;19;20141;-73
2023/03/15 00:18:24;;;;;;;3.57;1.83;;;6.90;99.90;;;;;;7393865;19;20901;-75
2023/03/15 00:20:50;;;;;;;2.50;1.73;;;6.80;99.90;;;;;;7391764;19;20138;-75
2023/03/15 00:23:16;;;;;;;2.60;1.87;;;6.80;99.90;;;;;;7392500;19;20142;-75
2023/03/15 00:25:47;;;;;;;1.90;1.70;;;6.90;99.90;;;;;;7391156;19;20233;-75
2023/03/15 00:28:13;;;;;;;2.23;1.77;;;6.90;99.90;;;;;;7390647;19;20139;-73
2023/03/15 00:30:39;;;;;;;3.53;2.10;;;6.90;99.90;;;;;;7394443;19;20140;-74
2023/03/15 00:33:05;;;;;;;3.80;2.07;;;6.70;99.90;;;;;;7391377;19;20169;-76
2023/03/15 00:35:32;;;;;;;3.97;2.10;;;6.70;99.90;;;;;;7393469;19;20130;-76
2023/03/15 00:38:00;;;;;;;2.77;2.37;;;6.80;99.90;;;;;;7392018;19;20830;-74
2023/03/15 00:40:26;;;;;;;3.00;2.17;;;6.70;99.90;;;;;;7391555;19;20134;-75
2023/03/15 00:42:52;;;;;;;3.50;2.03;;;6.80;99.90;;;;;;7390836;19;20644;-74
2023/03/15 00:45:20;;;;;;;3.03;1.70;;;6.80;99.90;;;;;;7392135;19;20147;-76
2023/03/15 00:47:51;;;;;;;6.43;2.73;;;6.80;99.90;;;;;;7390550;19;20273;-74
2023/03/15 00:50:17;;;;;;;4.30;2.50;;;6.60;99.90;;;;;;7388764;19;20143;-75
2023/03/15 00:52:43;;;;;;;5.20;2.40;;;6.40;99.90;;;;;;7392756;19;20127;-75
2023/03/15 00:55:15;;;;;;;6.47;2.10;;;6.30;99.90;;;;;;7390218;19;20477;-75
2023/03/15 00:57:42;;;;;;;4.70;2.33;;;6.40;99.90;;;;;;7391860;19;20142;-74
2023/03/15 01:00:23;;;;;;;4.17;2.13;;;6.50;99.90;;;;;;7390044;19;20167;-75
2023/03/15 01:02:51;;;;;;;5.97;1.97;;;6.60;99.90;;;;;;7388876;19;20130;-74
2023/03/15 01:05:17;;;;;;;3.77;2.30;;;6.60;99.90;;;;;;7388099;19;20608;-74
2023/03/15 01:07:44;;;;;;;5.30;2.10;;;6.70;99.90;;;;;;7390478;19;20158;-75
2023/03/15 01:10:11;;;;;;;3.80;2.20;;;6.70;99.90;;;;;;7380451;19;20154;-75
2023/03/15 01:12:37;;;;;;;4.57;2.10;;;6.70;99.90;;;;;;7389462;19;20138;-75
2023/03/15 01:15:06;;;;;;;2.90;1.83;;;6.60;99.90;;;;;;7389660;19;20579;-75
2023/03/15 01:17:32;;;;;;;4.73;2.40;;;6.70;99.90;;;;;;7391103;19;20143;-74
2023/03/15 01:19:59;;;;;;;6.10;1.80;;;6.80;99.90;;;;;;7391984;19;20153;-74
2023/03/15 01:22:25;;;;;;;4.57;1.80;;;6.80;99.90;;;;;;7391451;19;20624;-74
2023/03/15 01:24:51;;;;;;;2.93;2.10;;;6.90;99.90;;;;;;7390680;19;20584;-75
2023/03/15 01:27:16;;;;;;;5.17;2.10;;;6.90;99.90;;;;;;7390869;19;20205;-75
2023/03/15 01:29:42;;;;;;;6.63;1.87;;;6.90;99.90;;;;;;7389558;19;20161;-75
2023/03/15 01:32:08;;;;;;;4.43;1.70;;;6.80;99.90;;;;;;7390549;19;20482;-74
2023/03/15 01:34:35;;;;;;;1.93;1.40;;;6.80;99.90;;;;;;7390070;19;20146;-74
2023/03/15 01:37:01;;;;;;;3.13;1.50;;;6.90;99.90;;;;;;7393361;19;20524;-74
2023/03/15 01:39:28;;;;;;;4.57;1.53;;;6.60;99.90;;;;;;7389669;19;20233;-75
2023/03/15 01:41:54;;;;;;;4.20;1.50;;;6.70;99.90;;;;;;7391146;19;20199;-74
2023/03/15 01:44:20;;;;;;;4.87;1.70;;;6.70;99.90;;;;;;7387900;19;20146;-74
2023/03/15 01:46:46;;;;;;;7.07;1.63;;;6.80;99.90;;;;;;7389582;19;20161;-75
2023/03/15 01:49:17;;;;;;;3.33;1.40;;;6.80;99.90;;;;;;7390392;19;20623;-74
2023/03/15 01:51:50;;;;;;;2.87;1.43;;;6.80;99.90;;;;;;7389456;19;20131;-74
2023/03/15 01:54:40;;;;;;;1.67;1.27;;;6.70;99.90;;;;;;7388095;19;20238;-75
2023/03/15 01:57:17;;;;;;;2.53;1.60;;;6.80;99.90;;;;;;7389351;19;20127;-74
2023/03/15 01:59:49;;;;;;;3.23;1.30;;;6.90;99.90;;;;;;7389881;19;20138;-74
2023/03/15 02:02:16;;;;;;;4.90;1.50;;;6.70;99.90;;;;;;7386252;19;20150;-74
2023/03/15 02:04:53;;;;;;;3.80;1.70;;;6.70;99.90;;;;;;7388868;19;20514;-75
2023/03/15 02:07:22;;;;;;;3.97;1.30;;;6.70;99.90;;;;;;7387985;19;20156;-75
2023/03/15 02:10:00;;;;;;;1.70;0.83;;;6.70;99.90;;;;;;7389863;19;20157;-75
2023/03/15 02:12:27;;;;;;;3.73;1.57;;;6.60;99.90;;;;;;7389339;19;20156;-74
2023/03/15 02:14:54;;;;;;;4.60;1.60;;;6.60;99.90;;;;;;7391271;19;20138;-75
2023/03/15 02:17:27;;;;;;;6.87;1.30;;;6.60;99.90;;;;;;7388925;19;20225;-74
2023/03/15 02:20:02;;;;;;;3.77;1.20;;;6.60;99.90;;;;;;7388814;19;20161;-75
2023/03/15 02:22:54;;;;;;;4.93;1.13;;;6.60;99.90;;;;;;7389274;19;20182;-75
2023/03/15 02:25:41;;;;;;;5.53;1.13;;;6.60;99.90;;;;;;7389152;19;20157;-75
2023/03/15 02:28:10;;;;;;;3.97;1.13;;;6.60;99.90;;;;;;7386874;19;20162;-74
2023/03/15 02:30:36;;;;;;;3.30;0.90;;;6.60;99.90;;;;;;7386627;19;20134;-76
2023/03/15 02:33:05;;;;;;;2.70;1.00;;;6.60;99.90;;;;;;7389127;19;20138;-75
2023/03/15 02:35:32;;;;;;;3.07;0.80;;;6.70;99.90;;;;;;7386160;19;20221;-75
2023/03/15 02:37:58;;;;;;;2.37;1.03;;;6.60;99.90;;;;;;7388084;19;20142;-74
2023/03/15 02:40:27;;;;;;;3.03;1.10;;;6.60;99.90;;;;;;7386772;19;20143;-74
2023/03/15 02:42:57;;;;;;;2.77;1.30;;;6.60;99.90;;;;;;7387826;19;20251;-76
2023/03/15 02:45:25;;;;;;;6.67;1.20;;;6.60;99.90;;;;;;7387312;19;20186;-74
2023/03/15 02:47:52;;;;;;;1.97;0.87;;;6.60;99.90;;;;;;7389582;19;20157;-74
2023/03/15 02:50:18;;;;;;;2.90;0.93;;;6.60;99.90;;;;;;7387908;19;20172;-74
2023/03/15 02:52:44;;;;;;;2.23;0.80;;;6.60;99.90;;;;;;7387931;19;20130;-74
2023/03/15 02:55:10;;;;;;;4.90;0.90;;;6.70;99.90;;;;;;7380088;19;20153;-74
2023/03/15 02:57:36;;;;;;;0.97;0.80;;;6.80;99.90;;;;;;7387164;19;20229;-75
2023/03/15 03:00:13;;;;;;;3.03;1.10;;;6.70;99.90;;;;;;7386069;19;20570;-74
2023/03/15 03:02:45;;;;;;;6.17;1.10;;;6.40;99.90;;;;;;7387904;19;20481;-74
2023/03/15 03:05:12;;;;;;;1.67;1.00;;;6.50;99.90;;;;;;7393788;19;20149;-75
2023/03/15 03:07:41;;;;;;;2.00;0.80;;;6.50;99.90;;;;;;7393575;19;20143;-75
2023/03/15 03:10:08;;;;;;;2.57;0.97;;;6.50;99.90;;;;;;7391346;19;20142;-75
2023/03/15 03:12:34;;;;;;;2.07;0.90;;;6.50;99.90;;;;;;7393204;19;20183;-74
2023/03/15 03:15:02;;;;;;;2.10;0.83;;;6.50;99.90;;;;;;7395028;19;20138;-75
2023/03/15 03:17:28;;;;;;;4.03;0.90;;;6.50;99.90;;;;;;7391643;19;20949;-74
2023/03/15 03:19:53;;;;;;;2.00;0.77;;;6.50;99.90;;;;;;7389703;19;20780;-75
2023/03/15 03:22:23;;;;;;;3.93;0.90;;;6.50;99.90;;;;;;7394382;19;20143;-75
2023/03/15 03:24:50;;;;;;;1.47;0.73;;;6.50;99.90;;;;;;7392990;19;20178;-74
2023/03/15 03:27:16;;;;;;;3.80;1.00;;;6.60;99.90;;;;;;7394854;19;20254;-75
2023/03/15 03:29:43;;;;;;;1.80;0.77;;;6.50;99.90;;;;;;7392522;19;20149;-75
2023/03/15 03:32:09;;;;;;;4.10;0.97;;;6.50;99.90;;;;;;7394858;19;20139;-74
2023/03/15 03:34:35;;;;;;;2.63;1.00;;;6.50;99.90;;;;;;7395558;19;20218;-74
2023/03/15 03:37:01;;;;;;;2.10;0.97;;;6.50;99.90;;;;;;7391843;19;20131;-74
2023/03/15 03:39:26;;;;;;;3.33;1.20;;;6.50;99.90;;;;;;7392691;19;20487;-75
2023/03/15 03:41:52;;;;;;;1.10;0.80;;;6.50;99.90;;;;;;7392341;19;20222;-75
2023/03/15 03:44:18;;;;;;;2.00;1.30;;;6.70;99.90;;;;;;7393465;19;20607;-75
2023/03/15 03:46:44;;;;;;;3.27;1.00;;;6.50;99.90;;;;;;7392307;19;20592;-74
2023/03/15 03:49:10;;;;;;;5.97;0.80;;;6.50;99.90;;;;;;7391787;19;20139;-74
2023/03/15 03:51:36;;;;;;;2.10;0.90;;;6.50;99.90;;;;;;7392729;19;20230;-75
2023/03/15 03:54:05;;;;;;;6.57;1.70;;;6.50;99.90;;;;;;7393001;19;20650;-74
2023/03/15 03:56:31;;;;;;;4.27;1.30;;;6.40;99.90;;;;;;7393885;19;20529;-75
2023/03/15 03:58:57;;;;;;;3.27;1.00;;;6.40;99.90;;;;;;7392471;19;20248;-74
2023/03/15 04:01:22;;;;;;;3.13;1.30;;;6.40;99.90;;;;;;7394771;19;20481;-74
2023/03/15 04:03:50;;;;;;;5.00;0.97;;;6.40;99.90;;;;;;7392189;19;20157;-74
2023/03/15 04:06:16;;;;;;;4.80;1.03;;;6.20;99.90;;;;;;7391275;19;20134;-75
2023/03/15 04:08:41;;;;;;;5.53;1.30;;;6.30;99.90;;;;;;7392044;19;20142;-74
2023/03/15 04:11:07;;;;;;;5.40;1.60;;;6.20;99.90;;;;;;7391909;19;20596;-75
2023/03/15 04:13:33;;;;;;;4.40;1.03;;;6.10;99.90;;;;;;7389714;19;20143;-75
2023/03/15 04:16:00;;;;;;;3.30;1.37;;;6.10;99.90;;;;;;7392272;19;20733;-75
2023/03/15 04:18:26;;;;;;;2.97;1.23;;;6.20;99.90;;;;;;7391896;19;20139;-75
2023/03/15 04:20:53;;;;;;;1.90;1.00;;;6.10;99.90;;;;;;7392920;19;20214;-75
2023/03/15 04:23:21;;;;;;;6.07;1.37;;;6.00;99.90;;;;;;7391934;19;20157;-76
2023/03/15 04:25:53;;;;;;;2.63;1.00;;;6.10;99.90;;;;;;7392777;19;20135;-74
2023/03/15 04:28:21;;;;;;;2.30;1.17;;;6.10;99.90;;;;;;7391962;19;20873;-74
2023/03/15 04:30:49;;;;;;;1.70;1.00;;;6.20;99.90;;;;;;7392990;19;20157;-74
2023/03/15 04:33:15;;;;;;;4.57;1.30;;;6.20;99.90;;;;;;7390090;19;20165;-74
2023/03/15 04:35:44;;;;;;;1.70;0.90;;;6.00;99.90;;;;;;7393473;19;20141;-75
2023/03/15 04:38:10;;;;;;;4.23;1.50;;;6.00;99.90;;;;;;7389369;19;20137;-74
2023/03/15 04:40:36;;;;;;;3.60;1.30;;;6.00;99.90;;;;;;7392271;19;20186;-75
2023/03/15 04:43:03;;;;;;;3.23;1.13;;;6.00;99.90;;;;;;7391148;19;20150;-73
2023/03/15 04:45:30;;;;;;;3.43;1.50;;;6.10;99.90;;;;;;7393818;19;20202;-74
2023/03/15 04:47:56;;;;;;;4.70;1.50;;;6.20;99.90;;;;;;7393752;19;20130;-74
2023/03/15 04:50:23;;;;;;;3.57;1.43;;;6.10;99.90;;;;;;7391615;19;20514;-74
2023/03/15 04:52:49;;;;;;;4.83;1.30;;;6.20;99.90;;;;;;7392998;19;20230;-75
2023/03/15 04:55:16;;;;;;;4.73;1.30;;;6.10;99.90;;;;;;7392732;19;20130;-74
2023/03/15 04:57:42;;;;;;;4.07;1.23;;;6.20;99.90;;;;;;7393843;19;20134;-75
2023/03/15 05:00:10;;;;;;;3.80;1.50;;;6.20;99.90;;;;;;7390542;19;20138;-75
2023/03/15 05:02:40;;;;;;;6.27;1.60;;;6.00;99.90;;;;;;7391680;19;20130;-74
2023/03/15 05:05:12;;;;;;;1.90;1.50;;;6.00;99.90;;;;;;7390391;19;20171;-74
2023/03/15 05:07:38;;;;;;;5.10;1.17;;;6.00;99.90;;;;;;7391714;19;20471;-75
2023/03/15 05:10:05;;;;;;;2.70;1.40;;;6.00;99.90;;;;;;7389101;19;20130;-75
2023/03/15 05:12:32;;;;;;;4.93;1.73;;;6.00;99.90;;;;;;7389401;19;20151;-74
2023/03/15 05:14:58;;;;;;;7.10;1.70;;;5.90;99.90;;;;;;7391642;19;20151;-74
2023/03/15 05:17:24;;;;;;;3.47;1.60;;;5.90;99.90;;;;;;7389950;19;20145;-74
2023/03/15 05:19:50;;;;;;;5.57;1.63;;;5.90;99.90;;;;;;7392971;19;20162;-74
2023/03/15 05:22:17;;;;;;;2.67;1.93;;;5.90;99.90;;;;;;7390002;19;20170;-75
2023/03/15 05:24:43;;;;;;;5.23;1.60;;;6.00;99.90;;;;;;7388090;19;20150;-75
2023/03/15 05:27:10;;;;;;;2.83;1.40;;;5.90;99.90;;;;;;7389701;19;20158;-74
2023/03/15 05:29:36;;;;;;;4.07;1.50;;;5.80;99.90;;;;;;7390800;19;20138;-74
2023/03/15 05:32:03;;;;;;;2.47;1.30;;;5.80;99.90;;;;;;7389537;19;20273;-76
2023/03/15 05:34:31;;;;;;;3.10;1.80;;;5.80;99.90;;;;;;7390557;19;20213;-74
2023/03/15 05:36:57;;;;;;;4.33;1.80;;;5.80;99.90;;;;;;7388818;19;20180;-74
2023/03/15 05:39:23;;;;;;;3.23;1.43;;;5.80;99.90;;;;;;7388059;19;20158;-74
2023/03/15 05:41:49;;;;;;;6.90;1.70;;;5.80;99.90;;;;;;7388697;19;20146;-74
2023/03/15 05:44:15;;;;;;;5.63;1.70;;;5.80;99.90;;;;;;7386678;19;20170;-75
2023/03/15 05:46:41;;;;;;;4.40;1.80;;;5.90;99.90;;;;;;7391463;19;20151;-75
2023/03/15 05:49:07;;;;;;;1.90;1.60;;;5.90;99.90;;;;;;7387482;19;20153;-75
2023/03/15 05:51:33;;;;;;;4.50;2.13;;;5.70;99.90;;;;;;7388766;19;20154;-75
2023/03/15 05:53:59;;;;;;;2.07;1.43;;;5.80;99.90;;;;;;7386813;19;20165;-75
2023/03/15 05:56:25;;;;;;;8.50;2.20;;;5.80;99.90;;;;;;7389505;19;20437;-74
2023/03/15 05:58:51;;;;;;;5.13;1.77;;;5.70;99.90;;;;;;7387990;19;20885;-74
2023/03/15 06:01:16;;;;;;;4.57;1.77;;;5.60;99.90;;;;;;7387513;19;20163;-73
2023/03/15 06:03:42;;;;;;;5.17;1.50;;;5.70;99.90;;;;;;7391363;19;20607;-75
2023/03/15 06:06:08;;;;;;;3.10;1.67;;;5.80;99.90;;;;;;7387348;19;20329;-76
2023/03/15 06:08:36;;;;;;;4.27;1.47;;;5.80;99.90;;;;;;7388448;19;20519;-75
2023/03/15 06:11:02;;;;;;;3.83;1.73;;;5.90;99.90;;;;;;7388827;19;20261;-76
2023/03/15 06:13:28;;;;;;;6.33;1.77;;;5.90;99.90;;;;;;7387865;19;20271;-75
2023/03/15 06:15:53;;;;;;;5.07;1.90;;;5.90;99.90;;;;;;7390011;19;20149;-75
2023/03/15 06:18:19;;;;;;;5.80;1.80;;;6.00;99.90;;;;;;7386614;19;20154;-75
2023/03/15 06:20:45;;;;;;;3.30;1.43;;;6.00;99.90;;;;;;7386587;19;20137;-74
2023/03/15 06:23:10;;;;;;;4.90;1.30;;;5.80;99.90;;;;;;7386751;19;20139;-74
2023/03/15 06:25:36;;;;;;;5.87;1.70;;;5.90;99.90;;;;;;7390898;19;20127;-75
2023/03/15 06:28:02;;;;;;;5.53;1.53;;;5.80;99.90;;;;;;7390002;19;20150;-77
2023/03/15 06:30:28;;;;;;;4.90;1.40;;;5.80;99.90;;;;;;7384307;19;20239;-74
2023/03/15 06:32:54;;;;;;;7.90;1.90;;;5.80;99.90;;;;;;7386839;19;20701;-77
2023/03/15 06:35:23;;;;;;;4.77;2.40;;;5.90;99.90;;;;;;7387294;19;20177;-78
2023/03/15 06:37:51;;;;;;;4.57;2.07;;;5.90;99.90;;;;;;7385855;19;20497;-78
2023/03/15 06:40:17;;;;;;;6.90;2.40;;;6.00;99.90;;;;;;7388447;19;20467;-78
2023/03/15 06:42:43;;;;;;;7.30;2.43;;;5.90;99.90;;;;;;7388902;19;20246;-76
2023/03/15 06:45:09;;;;;;;4.87;1.97;;;6.00;99.90;;;;;;7389087;19;20134;-75
2023/03/15 06:47:35;;;;;;;4.07;1.77;;;6.00;99.90;;;;;;7390152;19;20262;-75
2023/03/15 06:50:02;;;;;;;8.23;2.03;;;6.00;99.90;;;;;;7388996;19;20130;-75
2023/03/15 06:52:28;;;;;;;8.30;2.37;;;6.00;99.90;;;;;;7389789;19;20963;-75
2023/03/15 06:54:57;;;;;;;8.07;1.83;;;6.00;99.90;;;;;;7387254;19;20150;-75
2023/03/15 06:57:22;;;;;;;4.00;1.60;;;6.00;99.90;;;;;;7384132;19;20164;-76
2023/03/15 06:59:48;;;;;;;9.87;2.43;;;6.20;99.90;;;;;;7389813;19;20624;-76
2023/03/15 07:02:16;;;;;;;5.70;2.03;;;6.20;99.90;;;;;;7386328;19;20134;-77
2023/03/15 07:04:46;;;;;;;5.80;2.20;;;6.20;99.90;;;;;;7386758;19;20188;-76
2023/03/15 07:07:13;;;;;;;6.80;1.80;;;6.10;99.90;;;;;;7386483;19;20143;-76
2023/03/15 07:09:39;;;;;;;5.10;1.60;;;6.10;99.90;;;;;;7389259;19;20127;-76
2023/03/15 07:12:06;;;;;;;4.00;1.70;;;6.20;99.90;;;;;;7387440;19;20239;-77
2023/03/15 07:14:33;;;;;;;8.50;1.80;;;6.20;99.90;;;;;;7389201;19;20147;-76
2023/03/15 07:16:59;;;;;;;5.77;2.20;;;6.20;99.90;;;;;;7388690;19;20135;-76
2023/03/15 07:19:24;;;;;;;8.37;1.90;;;6.10;99.90;;;;;;7386867;19;20183;-75
2023/03/15 07:21:50;;;;;;;7.37;1.93;;;6.10;99.90;;;;;;7387602;19;20236;-76
2023/03/15 07:24:16;;;;;;;8.67;1.97;;;6.00;99.90;;;;;;7386869;19;20139;-77
2023/03/15 07:26:42;;;;;;;4.17;2.00;;;6.00;99.90;;;;;;7387402;19;20145;-78
2023/03/15 07:29:08;;;;;;;4.07;1.97;;;6.20;99.90;;;;;;7390080;19;20135;-77
2023/03/15 07:31:34;;;;;;;7.27;1.80;;;6.10;99.90;;;;;;7391223;19;20806;-76
2023/03/15 07:34:00;;;;;;;5.83;1.83;;;6.10;99.90;;;;;;7387056;19;20466;-76
2023/03/15 07:36:25;;;;;;;9.77;2.00;;;6.10;99.90;;;;;;7388460;19;20165;-77
2023/03/15 07:38:51;;;;;;;7.17;1.83;;;6.00;99.90;;;;;;7385404;19;20166;-75
2023/03/15 07:41:17;;;;;;;3.63;1.63;;;6.00;99.90;;;;;;7379353;19;20166;-76
2023/03/15 07:43:43;;;;;;;5.43;1.87;;;6.00;99.90;;;;;;7381540;19;20482;-75
2023/03/15 07:46:10;;;;;;;3.50;1.63;;;6.20;99.90;;;;;;7385784;19;20777;-76
2023/03/15 07:48:36;;;;;;;4.43;1.70;;;6.30;99.90;;;;;;7389362;19;20662;-76
2023/03/15 07:51:03;;;;;;;6.10;1.67;;;6.40;99.90;;;;;;7392637;19;20142;-75
2023/03/15 07:53:32;;;;;;;6.37;1.70;;;6.30;99.90;;;;;;7393111;19;20206;-76
2023/03/15 07:55:58;;;;;;;5.47;1.67;;;6.20;99.90;;;;;;7393348;19;20147;-75
2023/03/15 07:58:23;;;;;;;5.67;2.37;;;6.40;99.90;;;;;;7393970;19;20135;-76
2023/03/15 08:00:53;;;;;;;4.77;1.53;;;6.30;99.90;;;;;;7400329;19;20131;-76
2023/03/15 08:03:18;;;;;;;7.77;1.47;;;6.40;99.90;;;;;;7381440;19;20153;-77
2023/03/15 08:05:44;;;;;;;3.20;1.40;;;6.50;99.90;;;;;;7388878;19;20134;-74
2023/03/15 08:08:10;;;;;;;4.57;1.37;;;6.50;99.90;;;;;;7391733;19;20150;-76
2023/03/15 08:10:36;;;;;;;1.97;1.10;;;6.40;99.90;;;;;;7390552;19;20210;-78
2023/03/15 08:13:02;;;;;;;4.73;1.77;;;6.80;99.90;;;;;;7392592;19;20126;-75
2023/03/15 08:15:27;;;;;;;6.60;1.70;;;6.40;99.90;;;;;;7389106;19;20158;-75
2023/03/15 08:17:53;;;;;;;6.90;2.47;;;6.60;99.90;;;;;;7395509;19;20135;-75
2023/03/15 08:20:19;;;;;;;5.30;1.57;;;6.60;99.90;;;;;;7394147;19;20135;-76
2023/03/15 08:22:47;;;;;;;7.33;1.60;;;6.30;99.90;;;;;;7392206;19;20146;-75
2023/03/15 08:25:15;;;;;;;7.40;2.00;;;6.20;99.90;;;;;;7392774;19;20158;-75
2023/03/15 08:27:41;;;;;;;4.77;1.87;;;6.30;99.90;;;;;;7393207;19;20135;-73
2023/03/15 08:30:11;;;;;;;5.40;1.70;;;6.40;99.90;;;;;;7390304;19;20568;-78
2023/03/15 08:32:43;;;;;;;4.00;1.37;;;6.40;99.90;;;;;;7389962;19;20184;-78
2023/03/15 08:35:11;;;;;;;2.87;1.37;;;6.50;99.90;;;;;;7390749;19;20142;-75
2023/03/15 08:37:37;;;;;;;6.60;1.60;;;6.90;99.90;;;;;;7391173;19;20387;-74
2023/03/15 08:40:10;;;;;;;3.13;1.40;;;7.00;99.90;;;;;;7392264;19;20246;-74
2023/03/15 08:42:38;;;;;;;4.37;1.20;;;7.10;99.90;;;;;;7390326;19;20473;-74
2023/03/15 08:45:05;;;;;;;5.30;1.30;;;7.10;99.90;;;;;;7391434;19;20217;-75
2023/03/15 08:47:34;;;;;;;3.65;1.63;;;7.10;99.90;;;;;;7389991;19;20387;-75
2023/03/15 08:50:05;;;;;;;4.50;1.35;;;7.40;99.90;;;;;;7386984;19;20758;-76
2023/03/15 08:52:32;;;;;;;2.77;1.10;;;7.50;99.90;;;;;;7385340;19;20194;-74
2023/03/15 08:54:57;;;;;;;4.83;1.50;;;7.70;99.90;;;;;;7389792;19;20158;-76
2023/03/15 08:57:25;;;;;;;4.17;1.30;;;7.90;99.90;;;;;;7389269;19;20127;-76
2023/03/15 08:59:52;;;;;;;7.40;3.63;;;7.90;99.90;;;;;;7388614;19;20155;-76
2023/03/15 09:02:21;;;;;;;8.00;2.30;;;8.10;99.90;;;;;;7391209;19;20536;-76
2023/03/15 09:04:46;;;;;;;6.93;2.80;;;8.30;99.90;;;;;;7386977;19;20147;-76
2023/03/15 09:07:14;;;;;;;3.13;1.20;;;8.50;99.90;;;;;;7392405;19;20139;-74
2023/03/15 09:09:40;;;;;;;2.13;1.20;;;8.60;99.90;;;;;;7387370;19;20155;-75
2023/03/15 09:12:07;;;;;;;4.50;1.90;;;8.70;99.90;;;;;;7386552;19;20141;-76
2023/03/15 09:14:32;;;;;;;3.07;1.60;;;8.70;99.90;;;;;;7391634;19;20126;-75
2023/03/15 09:16:58;;;;;;;4.00;1.77;;;8.80;99.90;;;;;;7390232;19;20161;-76
2023/03/15 09:19:24;;;;;;;4.00;2.00;;;9.00;99.90;;;;;;7390100;19;20123;-74
2023/03/15 09:21:50;;;;;;;6.50;1.40;;;9.20;99.90;;;;;;7383762;19;20129;-74
2023/03/15 09:24:16;;;;;;;3.73;1.30;;;9.40;99.90;;;;;;7389276;19;20239;-76
2023/03/15 09:26:41;;;;;;;3.13;1.30;;;9.40;99.90;;;;;;7388784;19;20506;-75
2023/03/15 09:29:10;;;;;;;5.97;2.03;;;9.30;99.90;;;;;;7389416;19;20926;-74
2023/03/15 09:31:36;;;;;;;5.57;1.53;;;9.10;99.90;;;;;;7388150;19;20146;-75
2023/03/15 09:34:02;;;;;;;6.53;2.07;;;9.30;99.90;;;;;;7392106;19;20131;-76
2023/03/15 09:36:28;;;;;;;5.63;1.70;;;9.20;99.90;;;;;;7391125;19;21774;-75
2023/03/15 09:38:54;;;;;;;5.87;1.47;;;9.20;99.90;;;;;;7389501;19;20768;-75
2023/03/15 09:41:42;;;;;;;5.57;1.33;;;9.20;99.90;;;;;;7388020;19;20162;-75
2023/03/15 09:44:16;;;;;;;6.17;1.57;;;9.20;99.90;;;;;;7387756;19;20138;-75
2023/03/15 09:47:05;;;;;;;4.05;1.20;;;9.30;99.90;;;;;;7388723;19;20399;-75
2023/03/15 09:49:50;;;;;;;3.37;1.50;;;9.20;99.90;;;;;;7387359;19;20721;-74
2023/03/15 09:52:42;;;;;;;3.77;1.70;;;8.80;99.90;;;;;;7385911;19;20631;-74
2023/03/15 09:55:11;;;;;;;2.37;1.30;;;8.80;99.90;;;;;;7388030;19;20194;-76
2023/03/15 09:57:55;;;;;;;5.60;1.30;;;8.70;99.90;;;;;;7384144;19;20135;-75
2023/03/15 10:00:45;;;;;;;5.00;1.40;;;8.20;99.90;;;;;;7378797;19;20148;-76
2023/03/15 10:03:38;;;;;;;4.10;1.38;;;8.20;99.90;;;;;;7378399;19;20371;-76
2023/03/15 10:06:19;;;;;;;5.73;1.47;;;8.30;99.90;;;;;;7381417;19;20126;-74
2023/03/15 10:08:46;;;;;;;8.00;2.70;;;8.50;99.90;;;;;;7381825;19;20510;-76
2023/03/15 10:11:33;;;;;;;5.37;1.30;;;8.70;99.90;;;;;;7381198;19;20691;-74
2023/03/15 10:14:05;;;;;;;3.80;1.50;;;8.90;99.90;;;;;;7385427;19;20487;-74
2023/03/15 10:16:47;;;;;;;2.53;1.30;;;9.00;99.90;;;;;;7387128;19;21500;-75
2023/03/15 10:19:13;;;;;;;7.07;1.90;;;9.10;99.90;;;;;;7387487;19;20139;-74
2023/03/15 10:21:44;;;;;;;2.60;1.20;;;9.30;99.90;;;;;;7388052;19;20239;-75
2023/03/15 10:24:23;;;;;;;4.13;1.30;;;9.10;99.90;;;;;;7389342;19;20138;-74
2023/03/15 10:26:51;;;;;;;2.20;1.17;;;9.30;99.90;;;;;;7389517;19;20134;-74
2023/03/15 10:29:19;;;;;;;2.93;1.10;;;9.60;99.90;;;;;;7388674;19;20238;-74
2023/03/15 10:31:46;;;;;;;1.87;0.73;;;9.10;99.90;;;;;;7387693;19;20754;-73
2023/03/15 10:34:12;;;;;;;1.83;1.17;;;9.30;99.90;;;;;;7387510;19;20147;-73
2023/03/15 10:36:44;;;;;;;4.00;1.10;;;9.40;99.90;;;;;;7387704;19;20146;-75
2023/03/15 10:39:11;;;;;;;4.97;1.80;;;9.10;99.90;;;;;;7388716;19;20138;-74
2023/03/15 10:41:42;;;;;;;1.80;0.90;;;9.20;99.90;;;;;;7386741;19;20246;-74
2023/03/15 10:44:24;;;;;;;2.27;0.73;;;9.50;99.90;;;;;;7388707;19;20711;-75
2023/03/15 10:47:08;;;;;;;2.30;1.00;;;9.80;99.90;;;;;;7386281;19;20153;-73
2023/03/15 10:49:36;;;;;;;3.20;0.97;;;9.90;99.90;;;;;;7387871;19;20134;-74
2023/03/15 10:52:03;;;;;;;2.43;0.70;;;9.80;99.90;;;;;;7386960;19;20269;-74
2023/03/15 10:54:36;;;;;;;0.90;0.53;;;9.80;99.90;;;;;;7386668;19;20134;-75
2023/03/15 10:57:04;;;;;;;0.93;0.70;;;10.00;99.90;;;;;;7386823;19;20565;-74
2023/03/15 10:59:34;;;;;;;2.40;1.00;;;10.00;99.90;;;;;;7388599;19;20580;-74
2023/03/15 11:02:11;;;;;;;1.30;0.80;;;10.00;99.90;;;;;;7387766;19;20739;-75
2023/03/15 11:05:01;;;;;;;4.87;2.87;;;9.90;99.90;;;;;;7386057;19;20143;-73
2023/03/15 11:07:28;;;;;;;1.20;0.80;;;9.70;99.90;;;;;;7385904;19;20151;-75
2023/03/15 11:09:59;;;;;;;3.30;1.00;;;9.70;99.90;;;;;;7385188;19;20854;-75
2023/03/15 11:12:26;;;;;;;3.67;1.40;;;9.70;99.90;;;;;;7386454;19;20209;-75
2023/03/15 11:15:03;;;;;;;3.70;1.30;;;9.60;99.90;;;;;;7383888;19;20911;-74
2023/03/15 11:17:36;;;;;;;4.13;1.43;;;9.50;99.90;;;;;;7389542;19;20151;-75
2023/03/15 11:20:29;;;;;;;2.93;1.20;;;9.40;99.90;;;;;;7386549;19;20214;-76
2023/03/15 11:22:56;;;;;;;1.43;1.00;;;9.40;99.90;;;;;;7386269;19;20131;-76
2023/03/15 11:25:30;;;;;;;3.17;0.80;;;9.40;99.90;;;;;;7395835;19;20143;-75
2023/03/15 11:27:56;;;;;;;2.13;0.80;;;9.40;99.90;;;;;;7394279;19;20133;-75
2023/03/15 11:30:28;;;;;;;1.30;0.63;;;9.30;99.90;;;;;;7391125;19;20131;-74
2023/03/15 11:32:57;;;;;;;3.63;0.80;;;9.20;99.90;;;;;;7393647;19;20142;-75
2023/03/15 11:35:30;;;;;;;2.50;1.10;;;9.20;99.90;;;;;;7394200;19;20154;-74
2023/03/15 11:38:22;;;;;;;2.93;0.93;;;9.20;99.90;;;;;;7394564;19;20142;-75
2023/03/15 11:40:52;;;;;;;1.90;0.87;;;9.50;99.90;;;;;;7397255;19;20123;-74
2023/03/15 11:43:47;;;;;;;3.43;0.80;;;9.60;99.90;;;;;;7396209;19;20171;-75
2023/03/15 11:46:54;;;;;;;2.30;0.93;;;9.70;99.90;;;;;;7397482;19;20135;-74
2023/03/15 11:49:37;;;;;;;2.93;0.90;;;9.70;99.90;;;;;;7397692;19;20151;-74
2023/03/15 11:52:04;;;;;;;3.27;1.20;;;9.70;99.90;;;;;;7395741;19;20161;-75
2023/03/15 11:54:31;;;;;;;2.17;1.00;;;9.60;99.90;;;;;;7396413;19;20131;-75
2023/03/15 11:57:03;;;;;;;4.67;1.07;;;9.70;99.90;;;;;;7393943;19;20958;-76
2023/03/15 11:59:31;;;;;;;2.60;1.17;;;9.50;99.90;;;;;;7394350;19;20162;-74
2023/03/15 12:02:08;;;;;;;1.83;0.93;;;9.70;99.90;;;;;;7392395;19;20134;-75
2023/03/15 12:04:34;;;;;;;3.53;1.00;;;9.60;99.90;;;;;;7391963;19;20156;-74
2023/03/15 12:07:03;;;;;;;2.07;0.73;;;9.60;99.90;;;;;;7395768;19;20131;-74
2023/03/15 12:09:31;;;;;;;3.00;1.10;;;9.70;99.90;;;;;;7390749;19;20155;-74
2023/03/15 12:12:00;;;;;;;2.67;0.70;;;9.80;99.90;;;;;;7392102;19;20487;-75
2023/03/15 12:14:32;;;;;;;2.07;0.70;;;9.60;99.90;;;;;;7394868;19;20137;-75
2023/03/15 12:17:22;;;;;;;4.23;1.03;;;9.80;99.90;;;;;;7399667;19;20147;-76
2023/03/15 12:20:20;;;;;;;1.23;0.73;;;10.10;99.90;;;;;;7395820;19;20139;-75
2023/03/15 12:22:51;;;;;;;3.57;1.20;;;10.00;99.90;;;;;;7393252;19;20146;-78
2023/03/15 12:25:36;;;;;;;3.60;1.80;;;10.10;99.90;;;;;;7392784;19;20139;-76
2023/03/15 12:28:18;;;;;;;0.80;0.50;;;10.00;99.90;;;;;;7391849;19;20135;-76
2023/03/15 12:30:44;;;;;;;2.93;0.70;;;9.90;99.90;;;;;;7389248;19;20165;-77
2023/03/15 12:33:22;;;;;;;1.83;0.50;;;9.70;99.90;;;;;;7389511;19;20154;-77
2023/03/15 12:35:48;;;;;;;2.70;0.70;;;9.70;99.90;;;;;;7389863;19;20150;-76
2023/03/15 12:38:21;;;;;;;3.43;0.80;;;9.70;99.90;;;;;;7390174;19;20226;-77
2023/03/15 12:40:57;;;;;;;1.33;0.60;;;9.50;99.90;;;;;;7391918;19;20164;-77
2023/03/15 12:43:44;;;;;;;2.80;0.73;;;9.50;99.90;;;;;;7392872;19;20135;-77
2023/03/15 12:46:43;;;;;;;0.87;0.60;;;9.60;99.90;;;;;;7390326;19;20137;-78
2023/03/15 12:49:25;;;;;;;2.20;0.97;;;9.90;99.90;;;;;;7388982;19;20273;-76
2023/03/15 12:52:04;;;;;;;1.40;0.63;;;9.90;99.90;;;;;;7389098;19;20149;-78
2023/03/15 12:54:41;;;;;;;1.23;0.70;;;9.90;99.90;;;;;;7391007;19;20166;-77
2023/03/15 12:57:20;;;;;;;2.10;1.00;;;9.80;99.90;;;;;;7391406;19;20623;-79
2023/03/15 13:00:06;;;;;;;3.10;1.00;;;9.60;99.90;;;;;;7390773;19;20166;-78
2023/03/15 13:02:42;;;;;;;6.83;1.00;;;9.40;99.90;;;;;;7390845;19;20139;-77
2023/03/15 13:05:29;;;;;;;1.77;0.80;;;9.20;99.90;;;;;;7388717;19;20142;-77
2023/03/15 13:08:26;;;;;;;3.47;1.50;;;9.00;99.90;;;;;;7385947;19;20394;-77
2023/03/15 13:11:04;;;;;;;2.83;1.23;;;8.90;99.90;;;;;;7386973;19;20487;-78